sensor_id;sensor_type;location;lat;lon;timestamp;P1;durP1;ratioP1;P2;durP2;ratioP2
17253;SDS011;32542;52.832;13.816;2023-07-28T00:01:48;1.45;;;1.20;;
17253;SDS011;32542;52.832;13.816;2023-07-28T00:04:53;1.00;;;1.00;;
17253;SDS011;32542;52.832;13.816;2023-07-28T00:07:55;1.13;;;1.02;;
17253;SDS011;32542;52.832;13.816;2023-07-28T00:10:59;0.90;;;0.90;;
17253;SDS011;32542;52.832;13.816;2023-07-28T00:14:02;1.98;;;1.08;;
17253;SDS011;32542;52.832;13.816;2023-07-28T00:17:05;1.58;;;1.10;;
17253;SDS011;32542;52.832;13.816;2023-07-28T00:20:10;1.00;;;1.00;;
17253;SDS011;32542;52.832;13.816;2023-07-28T00:23:13;1.38;;;1.00;;
17253;SDS011;32542;52.832;13.816;2023-07-28T00:26:16;0.98;;;0.90;;
17253;SDS011;32542;52.832;13.816;2023-07-28T00:29:19;1.17;;;1.00;;
17253;SDS011;32542;52.832;13.816;2023-07-28T00:32:22;1.33;;;1.02;;
17253;SDS011;32542;52.832;13.816;2023-07-28T00:35:26;3.13;;;0.95;;
17253;SDS011;32542;52.832;13.816;2023-07-28T00:38:29;1.73;;;1.10;;
17253;SDS011;32542;52.832;13.816;2023-07-28T00:41:32;2.13;;;0.90;;
17253;SDS011;32542;52.832;13.816;2023-07-28T00:44:35;1.33;;;0.90;;
17253;SDS011;32542;52.832;13.816;2023-07-28T00:47:38;1.38;;;1.05;;
17253;SDS011;32542;52.832;13.816;2023-07-28T00:50:43;1.23;;;0.88;;
17253;SDS011;32542;52.832;13.816;2023-07-28T00:53:47;3.35;;;1.00;;
17253;SDS011;32542;52.832;13.816;2023-07-28T00:56:52;0.98;;;0.93;;
17253;SDS011;32542;52.832;13.816;2023-07-28T00:59:55;0.93;;;0.82;;
17253;SDS011;32542;52.832;13.816;2023-07-28T01:02:58;0.70;;;0.70;;
17253;SDS011;32542;52.832;13.816;2023-07-28T01:06:05;0.80;;;0.80;;
17253;SDS011;32542;52.832;13.816;2023-07-28T01:09:16;1.25;;;1.00;;
17253;SDS011;32542;52.832;13.816;2023-07-28T01:12:21;1.02;;;0.82;;
17253;SDS011;32542;52.832;13.816;2023-07-28T01:15:26;1.27;;;0.90;;
17253;SDS011;32542;52.832;13.816;2023-07-28T01:18:29;2.15;;;1.02;;
17253;SDS011;32542;52.832;13.816;2023-07-28T01:21:33;0.73;;;0.73;;
17253;SDS011;32542;52.832;13.816;2023-07-28T01:24:37;0.70;;;0.70;;
17253;SDS011;32542;52.832;13.816;2023-07-28T01:27:51;1.63;;;0.73;;
17253;SDS011;32542;52.832;13.816;2023-07-28T01:30:56;1.05;;;0.70;;
17253;SDS011;32542;52.832;13.816;2023-07-28T01:33:59;1.38;;;0.80;;
17253;SDS011;32542;52.832;13.816;2023-07-28T01:37:03;0.98;;;0.80;;
17253;SDS011;32542;52.832;13.816;2023-07-28T01:40:06;1.73;;;0.70;;
17253;SDS011;32542;52.832;13.816;2023-07-28T01:43:12;1.67;;;0.73;;
17253;SDS011;32542;52.832;13.816;2023-07-28T01:46:15;0.82;;;0.70;;
17253;SDS011;32542;52.832;13.816;2023-07-28T01:49:18;0.65;;;0.65;;
17253;SDS011;32542;52.832;13.816;2023-07-28T01:52:21;0.50;;;0.50;;
17253;SDS011;32542;52.832;13.816;2023-07-28T01:55:24;0.68;;;0.68;;
17253;SDS011;32542;52.832;13.816;2023-07-28T01:58:28;1.27;;;0.50;;
17253;SDS011;32542;52.832;13.816;2023-07-28T02:01:31;1.65;;;0.63;;
17253;SDS011;32542;52.832;13.816;2023-07-28T02:04:34;0.85;;;0.70;;
17253;SDS011;32542;52.832;13.816;2023-07-28T02:07:37;0.82;;;0.60;;
17253;SDS011;32542;52.832;13.816;2023-07-28T02:10:40;1.23;;;0.90;;
17253;SDS011;32542;52.832;13.816;2023-07-28T02:13:44;2.70;;;0.73;;
17253;SDS011;32542;52.832;13.816;2023-07-28T02:16:51;1.17;;;0.55;;
17253;SDS011;32542;52.832;13.816;2023-07-28T02:19:54;1.13;;;0.57;;
17253;SDS011;32542;52.832;13.816;2023-07-28T02:22:56;0.85;;;0.50;;
17253;SDS011;32542;52.832;13.816;2023-07-28T02:26:00;0.88;;;0.60;;
17253;SDS011;32542;52.832;13.816;2023-07-28T02:29:04;0.50;;;0.50;;
17253;SDS011;32542;52.832;13.816;2023-07-28T02:32:07;0.50;;;0.50;;
17253;SDS011;32542;52.832;13.816;2023-07-28T02:35:11;0.65;;;0.50;;
17253;SDS011;32542;52.832;13.816;2023-07-28T02:38:14;1.25;;;0.52;;
17253;SDS011;32542;52.832;13.816;2023-07-28T02:41:17;0.85;;;0.60;;
17253;SDS011;32542;52.832;13.816;2023-07-28T02:44:21;0.50;;;0.50;;
17253;SDS011;32542;52.832;13.816;2023-07-28T02:47:24;2.42;;;0.70;;
17253;SDS011;32542;52.832;13.816;2023-07-28T02:50:27;2.88;;;0.60;;
17253;SDS011;32542;52.832;13.816;2023-07-28T02:53:30;0.57;;;0.55;;
17253;SDS011;32542;52.832;13.816;2023-07-28T02:56:33;0.50;;;0.50;;
17253;SDS011;32542;52.832;13.816;2023-07-28T02:59:45;2.63;;;0.60;;
17253;SDS011;32542;52.832;13.816;2023-07-28T03:02:48;0.82;;;0.47;;
17253;SDS011;32542;52.832;13.816;2023-07-28T03:05:51;0.70;;;0.60;;
17253;SDS011;32542;52.832;13.816;2023-07-28T03:08:59;0.52;;;0.50;;
17253;SDS011;32542;52.832;13.816;2023-07-28T03:12:20;1.10;;;0.60;;
17253;SDS011;32542;52.832;13.816;2023-07-28T03:15:25;0.73;;;0.60;;
17253;SDS011;32542;52.832;13.816;2023-07-28T03:18:28;1.52;;;0.75;;
17253;SDS011;32542;52.832;13.816;2023-07-28T03:21:31;0.60;;;0.60;;
17253;SDS011;32542;52.832;13.816;2023-07-28T03:24:35;1.77;;;0.60;;
17253;SDS011;32542;52.832;13.816;2023-07-28T03:27:38;0.70;;;0.60;;
17253;SDS011;32542;52.832;13.816;2023-07-28T03:30:42;0.93;;;0.70;;
17253;SDS011;32542;52.832;13.816;2023-07-28T03:33:45;0.73;;;0.70;;
17253;SDS011;32542;52.832;13.816;2023-07-28T03:36:48;0.73;;;0.55;;
17253;SDS011;32542;52.832;13.816;2023-07-28T03:39:51;0.75;;;0.60;;
17253;SDS011;32542;52.832;13.816;2023-07-28T03:42:58;0.95;;;0.60;;
17253;SDS011;32542;52.832;13.816;2023-07-28T03:46:03;0.65;;;0.60;;
17253;SDS011;32542;52.832;13.816;2023-07-28T03:49:06;0.60;;;0.60;;
17253;SDS011;32542;52.832;13.816;2023-07-28T03:52:09;0.60;;;0.60;;
17253;SDS011;32542;52.832;13.816;2023-07-28T03:55:12;1.35;;;0.60;;
17253;SDS011;32542;52.832;13.816;2023-07-28T03:58:15;0.77;;;0.70;;
17253;SDS011;32542;52.832;13.816;2023-07-28T04:01:19;1.92;;;0.70;;
17253;SDS011;32542;52.832;13.816;2023-07-28T04:04:23;0.98;;;0.73;;
17253;SDS011;32542;52.832;13.816;2023-07-28T04:07:26;4.20;;;0.90;;
17253;SDS011;32542;52.832;13.816;2023-07-28T04:10:29;1.73;;;0.60;;
17253;SDS011;32542;52.832;13.816;2023-07-28T04:13:32;0.70;;;0.70;;
17253;SDS011;32542;52.832;13.816;2023-07-28T04:16:37;0.75;;;0.65;;
17253;SDS011;32542;52.832;13.816;2023-07-28T04:19:40;0.85;;;0.70;;
17253;SDS011;32542;52.832;13.816;2023-07-28T04:22:43;2.75;;;0.80;;
17253;SDS011;32542;52.832;13.816;2023-07-28T04:25:46;2.65;;;0.90;;
17253;SDS011;32542;52.832;13.816;2023-07-28T04:28:49;0.80;;;0.80;;
17253;SDS011;32542;52.832;13.816;2023-07-28T04:31:53;1.00;;;0.80;;
17253;SDS011;32542;52.832;13.816;2023-07-28T04:35:06;0.63;;;0.63;;
17253;SDS011;32542;52.832;13.816;2023-07-28T04:38:16;0.98;;;0.80;;
17253;SDS011;32542;52.832;13.816;2023-07-28T04:41:28;1.23;;;0.70;;
17253;SDS011;32542;52.832;13.816;2023-07-28T04:44:32;1.25;;;0.80;;
17253;SDS011;32542;52.832;13.816;2023-07-28T04:47:38;1.80;;;0.90;;
17253;SDS011;32542;52.832;13.816;2023-07-28T04:50:43;0.65;;;0.65;;
17253;SDS011;32542;52.832;13.816;2023-07-28T04:54:05;2.90;;;0.77;;
17253;SDS011;32542;52.832;13.816;2023-07-28T04:57:08;1.77;;;0.90;;
17253;SDS011;32542;52.832;13.816;2023-07-28T05:00:15;2.15;;;0.70;;
17253;SDS011;32542;52.832;13.816;2023-07-28T05:03:19;1.33;;;0.90;;
17253;SDS011;32542;52.832;13.816;2023-07-28T05:06:29;0.90;;;0.90;;
17253;SDS011;32542;52.832;13.816;2023-07-28T05:09:32;1.45;;;0.77;;
17253;SDS011;32542;52.832;13.816;2023-07-28T05:12:35;2.92;;;0.90;;
17253;SDS011;32542;52.832;13.816;2023-07-28T05:15:38;2.55;;;0.82;;
17253;SDS011;32542;52.832;13.816;2023-07-28T05:18:48;1.73;;;0.80;;
17253;SDS011;32542;52.832;13.816;2023-07-28T05:22:11;2.42;;;0.75;;
17253;SDS011;32542;52.832;13.816;2023-07-28T05:25:20;1.20;;;0.90;;
17253;SDS011;32542;52.832;13.816;2023-07-28T05:28:23;1.17;;;0.90;;
17253;SDS011;32542;52.832;13.816;2023-07-28T05:31:30;0.80;;;0.80;;
17253;SDS011;32542;52.832;13.816;2023-07-28T05:34:35;1.92;;;0.90;;
17253;SDS011;32542;52.832;13.816;2023-07-28T05:37:38;0.73;;;0.70;;
17253;SDS011;32542;52.832;13.816;2023-07-28T05:40:41;0.90;;;0.80;;
17253;SDS011;32542;52.832;13.816;2023-07-28T05:43:44;1.08;;;0.80;;
17253;SDS011;32542;52.832;13.816;2023-07-28T05:46:51;1.63;;;1.00;;
17253;SDS011;32542;52.832;13.816;2023-07-28T05:49:56;1.30;;;0.80;;
17253;SDS011;32542;52.832;13.816;2023-07-28T05:52:59;1.42;;;0.88;;
17253;SDS011;32542;52.832;13.816;2023-07-28T05:56:02;1.73;;;0.80;;
17253;SDS011;32542;52.832;13.816;2023-07-28T05:59:07;0.60;;;0.60;;
17253;SDS011;32542;52.832;13.816;2023-07-28T06:02:10;1.30;;;0.90;;
17253;SDS011;32542;52.832;13.816;2023-07-28T06:05:25;1.42;;;1.00;;
17253;SDS011;32542;52.832;13.816;2023-07-28T06:08:28;1.33;;;1.00;;
17253;SDS011;32542;52.832;13.816;2023-07-28T06:11:31;1.30;;;1.00;;
17253;SDS011;32542;52.832;13.816;2023-07-28T06:14:36;2.90;;;0.93;;
17253;SDS011;32542;52.832;13.816;2023-07-28T06:17:41;1.00;;;0.93;;
17253;SDS011;32542;52.832;13.816;2023-07-28T06:20:46;1.10;;;0.85;;
17253;SDS011;32542;52.832;13.816;2023-07-28T06:23:49;2.35;;;0.90;;
17253;SDS011;32542;52.832;13.816;2023-07-28T06:26:52;2.40;;;0.82;;
17253;SDS011;32542;52.832;13.816;2023-07-28T06:29:55;0.95;;;0.95;;
17253;SDS011;32542;52.832;13.816;2023-07-28T06:32:58;1.25;;;0.98;;
17253;SDS011;32542;52.832;13.816;2023-07-28T06:36:02;0.80;;;0.80;;
17253;SDS011;32542;52.832;13.816;2023-07-28T06:39:05;2.33;;;1.00;;
17253;SDS011;32542;52.832;13.816;2023-07-28T06:42:08;2.50;;;0.80;;
17253;SDS011;32542;52.832;13.816;2023-07-28T06:45:13;1.75;;;0.90;;
17253;SDS011;32542;52.832;13.816;2023-07-28T06:48:16;1.17;;;0.95;;
17253;SDS011;32542;52.832;13.816;2023-07-28T06:51:21;0.93;;;0.90;;
17253;SDS011;32542;52.832;13.816;2023-07-28T06:54:24;2.30;;;0.93;;
17253;SDS011;32542;52.832;13.816;2023-07-28T06:57:27;1.30;;;1.00;;
17253;SDS011;32542;52.832;13.816;2023-07-28T07:00:30;2.75;;;1.00;;
17253;SDS011;32542;52.832;13.816;2023-07-28T07:03:32;1.00;;;0.88;;
17253;SDS011;32542;52.832;13.816;2023-07-28T07:06:37;4.35;;;1.10;;
17253;SDS011;32542;52.832;13.816;2023-07-28T07:09:40;1.55;;;1.02;;
17253;SDS011;32542;52.832;13.816;2023-07-28T07:12:43;4.53;;;1.00;;
17253;SDS011;32542;52.832;13.816;2023-07-28T07:15:46;4.38;;;1.40;;
17253;SDS011;32542;52.832;13.816;2023-07-28T07:18:50;4.40;;;1.20;;
17253;SDS011;32542;52.832;13.816;2023-07-28T07:21:55;1.98;;;1.10;;
17253;SDS011;32542;52.832;13.816;2023-07-28T07:24:58;7.95;;;1.50;;
17253;SDS011;32542;52.832;13.816;2023-07-28T07:28:01;6.38;;;1.50;;
17253;SDS011;32542;52.832;13.816;2023-07-28T07:31:04;3.80;;;1.33;;
17253;SDS011;32542;52.832;13.816;2023-07-28T07:34:14;2.22;;;1.20;;
17253;SDS011;32542;52.832;13.816;2023-07-28T07:37:19;5.70;;;1.23;;
17253;SDS011;32542;52.832;13.816;2023-07-28T07:40:21;3.83;;;1.00;;
17253;SDS011;32542;52.832;13.816;2023-07-28T07:43:28;4.53;;;1.00;;
17253;SDS011;32542;52.832;13.816;2023-07-28T07:46:31;2.88;;;1.13;;
17253;SDS011;32542;52.832;13.816;2023-07-28T07:49:34;3.28;;;1.17;;
17253;SDS011;32542;52.832;13.816;2023-07-28T07:52:38;3.38;;;0.95;;
17253;SDS011;32542;52.832;13.816;2023-07-28T07:55:43;1.27;;;0.65;;
17253;SDS011;32542;52.832;13.816;2023-07-28T07:58:45;2.60;;;1.23;;
17253;SDS011;32542;52.832;13.816;2023-07-28T08:01:48;1.33;;;0.80;;
17253;SDS011;32542;52.832;13.816;2023-07-28T08:04:51;6.53;;;1.20;;
17253;SDS011;32542;52.832;13.816;2023-07-28T08:07:56;1.75;;;0.82;;
17253;SDS011;32542;52.832;13.816;2023-07-28T08:10:58;2.47;;;0.90;;
17253;SDS011;32542;52.832;13.816;2023-07-28T08:14:01;4.18;;;0.90;;
17253;SDS011;32542;52.832;13.816;2023-07-28T08:17:05;1.77;;;0.70;;
17253;SDS011;32542;52.832;13.816;2023-07-28T08:20:08;3.35;;;0.82;;
17253;SDS011;32542;52.832;13.816;2023-07-28T08:23:13;1.48;;;0.90;;
17253;SDS011;32542;52.832;13.816;2023-07-28T08:26:16;2.13;;;0.80;;
17253;SDS011;32542;52.832;13.816;2023-07-28T08:29:19;0.95;;;0.80;;
17253;SDS011;32542;52.832;13.816;2023-07-28T08:32:22;1.23;;;0.70;;
17253;SDS011;32542;52.832;13.816;2023-07-28T08:35:24;0.82;;;0.73;;
17253;SDS011;32542;52.832;13.816;2023-07-28T08:38:29;1.92;;;0.80;;
17253;SDS011;32542;52.832;13.816;2023-07-28T08:41:32;0.70;;;0.60;;
17253;SDS011;32542;52.832;13.816;2023-07-28T08:44:35;0.73;;;0.73;;
17253;SDS011;32542;52.832;13.816;2023-07-28T08:47:38;0.70;;;0.70;;
17253;SDS011;32542;52.832;13.816;2023-07-28T08:50:41;2.05;;;0.70;;
17253;SDS011;32542;52.832;13.816;2023-07-28T08:53:45;1.98;;;0.60;;
17253;SDS011;32542;52.832;13.816;2023-07-28T08:56:48;6.82;;;0.63;;
17253;SDS011;32542;52.832;13.816;2023-07-28T08:59:51;3.40;;;0.57;;
17253;SDS011;32542;52.832;13.816;2023-07-28T09:02:54;4.30;;;1.08;;
17253;SDS011;32542;52.832;13.816;2023-07-28T09:06:01;10.07;;;0.95;;
17253;SDS011;32542;52.832;13.816;2023-07-28T09:09:07;3.85;;;0.82;;
17253;SDS011;32542;52.832;13.816;2023-07-28T09:12:10;4.78;;;0.80;;
17253;SDS011;32542;52.832;13.816;2023-07-28T09:15:13;4.18;;;0.80;;
17253;SDS011;32542;52.832;13.816;2023-07-28T09:18:17;5.32;;;0.80;;
17253;SDS011;32542;52.832;13.816;2023-07-28T09:21:20;3.28;;;0.73;;
17253;SDS011;32542;52.832;13.816;2023-07-28T09:24:28;2.90;;;0.80;;
17253;SDS011;32542;52.832;13.816;2023-07-28T09:27:33;1.95;;;0.60;;
17253;SDS011;32542;52.832;13.816;2023-07-28T09:30:44;1.58;;;0.63;;
17253;SDS011;32542;52.832;13.816;2023-07-28T09:33:48;1.13;;;0.50;;
17253;SDS011;32542;52.832;13.816;2023-07-28T09:36:52;0.75;;;0.50;;
17253;SDS011;32542;52.832;13.816;2023-07-28T09:39:57;0.85;;;0.55;;
17253;SDS011;32542;52.832;13.816;2023-07-28T09:43:00;3.20;;;0.85;;
17253;SDS011;32542;52.832;13.816;2023-07-28T09:46:03;0.70;;;0.50;;
17253;SDS011;32542;52.832;13.816;2023-07-28T09:49:09;2.95;;;0.60;;
17253;SDS011;32542;52.832;13.816;2023-07-28T09:52:15;1.40;;;0.68;;
17253;SDS011;32542;52.832;13.816;2023-07-28T09:55:22;2.40;;;1.08;;
17253;SDS011;32542;52.832;13.816;2023-07-28T09:58:25;1.88;;;0.50;;
17253;SDS011;32542;52.832;13.816;2023-07-28T10:01:31;0.70;;;0.63;;
17253;SDS011;32542;52.832;13.816;2023-07-28T10:04:36;0.90;;;0.70;;
17253;SDS011;32542;52.832;13.816;2023-07-28T10:07:39;2.00;;;0.70;;
17253;SDS011;32542;52.832;13.816;2023-07-28T10:10:46;0.60;;;0.60;;
17253;SDS011;32542;52.832;13.816;2023-07-28T10:13:51;1.05;;;0.63;;
17253;SDS011;32542;52.832;13.816;2023-07-28T10:16:54;1.95;;;0.60;;
17253;SDS011;32542;52.832;13.816;2023-07-28T10:19:57;0.65;;;0.57;;
17253;SDS011;32542;52.832;13.816;2023-07-28T10:23:04;2.70;;;0.80;;
17253;SDS011;32542;52.832;13.816;2023-07-28T10:26:12;2.45;;;0.70;;
17253;SDS011;32542;52.832;13.816;2023-07-28T10:29:15;0.77;;;0.77;;
17253;SDS011;32542;52.832;13.816;2023-07-28T10:32:25;0.70;;;0.70;;
17253;SDS011;32542;52.832;13.816;2023-07-28T10:35:29;0.70;;;0.60;;
17253;SDS011;32542;52.832;13.816;2023-07-28T10:38:34;0.68;;;0.68;;
17253;SDS011;32542;52.832;13.816;2023-07-28T10:41:40;0.80;;;0.60;;
17253;SDS011;32542;52.832;13.816;2023-07-28T10:45:02;0.65;;;0.65;;
17253;SDS011;32542;52.832;13.816;2023-07-28T10:48:05;0.70;;;0.70;;
17253;SDS011;32542;52.832;13.816;2023-07-28T10:51:10;0.52;;;0.52;;
17253;SDS011;32542;52.832;13.816;2023-07-28T10:54:13;1.52;;;0.88;;
17253;SDS011;32542;52.832;13.816;2023-07-28T10:57:21;0.75;;;0.73;;
17253;SDS011;32542;52.832;13.816;2023-07-28T11:00:25;1.00;;;0.70;;
17253;SDS011;32542;52.832;13.816;2023-07-28T11:03:27;3.53;;;0.75;;
17253;SDS011;32542;52.832;13.816;2023-07-28T11:06:31;1.52;;;0.80;;
17253;SDS011;32542;52.832;13.816;2023-07-28T11:09:34;4.38;;;1.10;;
17253;SDS011;32542;52.832;13.816;2023-07-28T11:12:42;2.35;;;0.95;;
17253;SDS011;32542;52.832;13.816;2023-07-28T11:15:45;9.57;;;1.52;;
17253;SDS011;32542;52.832;13.816;2023-07-28T11:18:48;7.03;;;0.90;;
17253;SDS011;32542;52.832;13.816;2023-07-28T11:21:51;10.00;;;1.10;;
17253;SDS011;32542;52.832;13.816;2023-07-28T11:24:54;4.97;;;1.30;;
17253;SDS011;32542;52.832;13.816;2023-07-28T11:27:59;4.05;;;1.05;;
17253;SDS011;32542;52.832;13.816;2023-07-28T11:31:03;7.43;;;1.52;;
17253;SDS011;32542;52.832;13.816;2023-07-28T11:34:12;9.77;;;1.00;;
17253;SDS011;32542;52.832;13.816;2023-07-28T11:37:16;5.50;;;1.08;;
17253;SDS011;32542;52.832;13.816;2023-07-28T11:40:20;4.05;;;1.35;;
17253;SDS011;32542;52.832;13.816;2023-07-28T11:43:25;2.42;;;1.00;;
17253;SDS011;32542;52.832;13.816;2023-07-28T11:46:31;3.75;;;1.00;;
17253;SDS011;32542;52.832;13.816;2023-07-28T11:49:35;6.70;;;1.20;;
17253;SDS011;32542;52.832;13.816;2023-07-28T11:52:49;12.70;;;1.75;;
17253;SDS011;32542;52.832;13.816;2023-07-28T11:55:52;9.50;;;1.70;;
17253;SDS011;32542;52.832;13.816;2023-07-28T11:58:56;12.32;;;1.50;;
17253;SDS011;32542;52.832;13.816;2023-07-28T12:01:59;5.72;;;1.10;;
17253;SDS011;32542;52.832;13.816;2023-07-28T12:05:11;6.68;;;1.00;;
17253;SDS011;32542;52.832;13.816;2023-07-28T12:08:32;8.02;;;1.00;;
17253;SDS011;32542;52.832;13.816;2023-07-28T12:11:36;6.60;;;1.08;;
17253;SDS011;32542;52.832;13.816;2023-07-28T12:14:43;6.20;;;1.08;;
17253;SDS011;32542;52.832;13.816;2023-07-28T12:18:09;5.07;;;0.80;;
17253;SDS011;32542;52.832;13.816;2023-07-28T12:21:17;3.65;;;0.98;;
17253;SDS011;32542;52.832;13.816;2023-07-28T12:24:19;6.22;;;1.08;;
17253;SDS011;32542;52.832;13.816;2023-07-28T12:27:22;6.03;;;1.40;;
17253;SDS011;32542;52.832;13.816;2023-07-28T12:30:35;11.38;;;1.73;;
17253;SDS011;32542;52.832;13.816;2023-07-28T12:33:38;14.15;;;1.35;;
17253;SDS011;32542;52.832;13.816;2023-07-28T12:36:41;4.50;;;1.15;;
17253;SDS011;32542;52.832;13.816;2023-07-28T12:43:18;3.65;;;1.55;;
17253;SDS011;32542;52.832;13.816;2023-07-28T12:46:25;7.93;;;0.88;;
17253;SDS011;32542;52.832;13.816;2023-07-28T12:49:28;4.45;;;1.23;;
17253;SDS011;32542;52.832;13.816;2023-07-28T12:52:31;1.67;;;0.73;;
17253;SDS011;32542;52.832;13.816;2023-07-28T12:55:54;4.35;;;1.33;;
17253;SDS011;32542;52.832;13.816;2023-07-28T12:58:59;2.63;;;0.80;;
17253;SDS011;32542;52.832;13.816;2023-07-28T13:02:07;4.43;;;0.98;;
17253;SDS011;32542;52.832;13.816;2023-07-28T13:05:10;1.33;;;0.60;;
17253;SDS011;32542;52.832;13.816;2023-07-28T13:08:14;5.80;;;0.85;;
17253;SDS011;32542;52.832;13.816;2023-07-28T13:11:17;1.65;;;0.50;;
17253;SDS011;32542;52.832;13.816;2023-07-28T13:14:20;2.70;;;0.70;;
17253;SDS011;32542;52.832;13.816;2023-07-28T13:17:25;2.15;;;0.50;;
17253;SDS011;32542;52.832;13.816;2023-07-28T13:20:28;1.52;;;0.80;;
17253;SDS011;32542;52.832;13.816;2023-07-28T13:23:30;1.48;;;0.60;;
17253;SDS011;32542;52.832;13.816;2023-07-28T13:26:33;0.50;;;0.50;;
17253;SDS011;32542;52.832;13.816;2023-07-28T13:29:37;1.23;;;0.57;;
17253;SDS011;32542;52.832;13.816;2023-07-28T13:32:41;1.98;;;0.80;;
17253;SDS011;32542;52.832;13.816;2023-07-28T13:35:44;3.60;;;0.50;;
17253;SDS011;32542;52.832;13.816;2023-07-28T13:38:47;0.60;;;0.60;;
17253;SDS011;32542;52.832;13.816;2023-07-28T13:41:50;0.70;;;0.45;;
17253;SDS011;32542;52.832;13.816;2023-07-28T13:44:53;1.05;;;0.85;;
17253;SDS011;32542;52.832;13.816;2023-07-28T13:48:00;3.33;;;0.80;;
17253;SDS011;32542;52.832;13.816;2023-07-28T13:51:03;7.35;;;0.88;;
17253;SDS011;32542;52.832;13.816;2023-07-28T13:54:06;4.03;;;0.95;;
17253;SDS011;32542;52.832;13.816;2023-07-28T13:57:12;4.25;;;0.98;;
17253;SDS011;32542;52.832;13.816;2023-07-28T14:00:15;4.18;;;0.90;;
17253;SDS011;32542;52.832;13.816;2023-07-28T14:03:20;9.90;;;0.93;;
17253;SDS011;32542;52.832;13.816;2023-07-28T14:06:23;4.32;;;0.75;;
17253;SDS011;32542;52.832;13.816;2023-07-28T14:09:26;10.30;;;0.95;;
17253;SDS011;32542;52.832;13.816;2023-07-28T14:12:29;5.70;;;0.75;;
17253;SDS011;32542;52.832;13.816;2023-07-28T14:15:31;13.63;;;1.48;;
17253;SDS011;32542;52.832;13.816;2023-07-28T14:18:36;2.30;;;0.70;;
17253;SDS011;32542;52.832;13.816;2023-07-28T14:21:39;7.50;;;1.10;;
17253;SDS011;32542;52.832;13.816;2023-07-28T14:24:42;2.10;;;0.60;;
17253;SDS011;32542;52.832;13.816;2023-07-28T14:27:47;2.75;;;0.70;;
17253;SDS011;32542;52.832;13.816;2023-07-28T14:30:50;1.77;;;0.80;;
17253;SDS011;32542;52.832;13.816;2023-07-28T14:33:55;4.43;;;0.70;;
17253;SDS011;32542;52.832;13.816;2023-07-28T14:36:58;6.00;;;1.15;;
17253;SDS011;32542;52.832;13.816;2023-07-28T14:40:03;4.00;;;0.60;;
17253;SDS011;32542;52.832;13.816;2023-07-28T14:43:06;2.22;;;0.82;;
17253;SDS011;32542;52.832;13.816;2023-07-28T14:46:09;2.50;;;0.70;;
17253;SDS011;32542;52.832;13.816;2023-07-28T14:49:13;4.40;;;0.75;;
17253;SDS011;32542;52.832;13.816;2023-07-28T14:52:17;3.15;;;0.73;;
17253;SDS011;32542;52.832;13.816;2023-07-28T14:55:19;2.85;;;0.90;;
17253;SDS011;32542;52.832;13.816;2023-07-28T14:58:23;1.90;;;0.85;;
17253;SDS011;32542;52.832;13.816;2023-07-28T15:01:26;7.38;;;0.70;;
17253;SDS011;32542;52.832;13.816;2023-07-28T15:04:30;3.65;;;0.80;;
17253;SDS011;32542;52.832;13.816;2023-07-28T15:07:33;1.75;;;0.75;;
17253;SDS011;32542;52.832;13.816;2023-07-28T15:10:37;6.63;;;0.90;;
17253;SDS011;32542;52.832;13.816;2023-07-28T15:13:40;3.67;;;1.02;;
17253;SDS011;32542;52.832;13.816;2023-07-28T15:16:43;2.95;;;0.68;;
17253;SDS011;32542;52.832;13.816;2023-07-28T15:19:47;1.30;;;0.70;;
17253;SDS011;32542;52.832;13.816;2023-07-28T15:22:50;1.60;;;0.60;;
17253;SDS011;32542;52.832;13.816;2023-07-28T15:25:53;0.80;;;0.50;;
17253;SDS011;32542;52.832;13.816;2023-07-28T15:28:58;2.50;;;0.50;;
17253;SDS011;32542;52.832;13.816;2023-07-28T15:32:02;0.95;;;0.50;;
17253;SDS011;32542;52.832;13.816;2023-07-28T15:35:07;7.53;;;0.90;;
17253;SDS011;32542;52.832;13.816;2023-07-28T15:38:10;2.15;;;0.50;;
17253;SDS011;32542;52.832;13.816;2023-07-28T15:41:13;1.85;;;0.60;;
17253;SDS011;32542;52.832;13.816;2023-07-28T15:44:16;2.35;;;0.60;;
17253;SDS011;32542;52.832;13.816;2023-07-28T15:47:19;4.95;;;0.60;;
17253;SDS011;32542;52.832;13.816;2023-07-28T15:50:23;4.30;;;0.65;;
17253;SDS011;32542;52.832;13.816;2023-07-28T15:53:26;1.80;;;0.77;;
17253;SDS011;32542;52.832;13.816;2023-07-28T15:56:29;5.97;;;0.85;;
17253;SDS011;32542;52.832;13.816;2023-07-28T15:59:32;4.13;;;0.90;;
17253;SDS011;32542;52.832;13.816;2023-07-28T16:02:35;5.85;;;0.93;;
17253;SDS011;32542;52.832;13.816;2023-07-28T16:05:40;7.65;;;0.93;;
17253;SDS011;32542;52.832;13.816;2023-07-28T16:08:43;8.43;;;0.90;;
17253;SDS011;32542;52.832;13.816;2023-07-28T16:11:46;1.88;;;0.75;;
17253;SDS011;32542;52.832;13.816;2023-07-28T16:14:48;2.58;;;0.80;;
17253;SDS011;32542;52.832;13.816;2023-07-28T16:17:51;3.83;;;1.25;;
17253;SDS011;32542;52.832;13.816;2023-07-28T16:20:56;3.83;;;1.10;;
17253;SDS011;32542;52.832;13.816;2023-07-28T16:23:59;3.38;;;0.73;;
17253;SDS011;32542;52.832;13.816;2023-07-28T16:27:02;2.80;;;1.00;;
17253;SDS011;32542;52.832;13.816;2023-07-28T16:30:06;4.75;;;0.70;;
17253;SDS011;32542;52.832;13.816;2023-07-28T16:33:09;2.28;;;0.80;;
17253;SDS011;32542;52.832;13.816;2023-07-28T16:36:14;1.75;;;0.80;;
17253;SDS011;32542;52.832;13.816;2023-07-28T16:39:17;2.55;;;0.80;;
17253;SDS011;32542;52.832;13.816;2023-07-28T16:42:19;0.80;;;0.80;;
17253;SDS011;32542;52.832;13.816;2023-07-28T16:45:22;2.45;;;0.88;;
17253;SDS011;32542;52.832;13.816;2023-07-28T16:48:25;0.60;;;0.60;;
17253;SDS011;32542;52.832;13.816;2023-07-28T16:51:30;0.60;;;0.60;;
17253;SDS011;32542;52.832;13.816;2023-07-28T16:54:33;1.02;;;0.60;;
17253;SDS011;32542;52.832;13.816;2023-07-28T16:57:35;0.88;;;0.60;;
17253;SDS011;32542;52.832;13.816;2023-07-28T17:00:38;0.82;;;0.82;;
17253;SDS011;32542;52.832;13.816;2023-07-28T17:03:41;1.17;;;0.70;;
17253;SDS011;32542;52.832;13.816;2023-07-28T17:06:46;4.32;;;0.85;;
17253;SDS011;32542;52.832;13.816;2023-07-28T17:09:49;1.00;;;0.90;;
17253;SDS011;32542;52.832;13.816;2023-07-28T17:12:52;1.70;;;0.70;;
17253;SDS011;32542;52.832;13.816;2023-07-28T17:15:55;2.60;;;0.70;;
17253;SDS011;32542;52.832;13.816;2023-07-28T17:18:58;0.70;;;0.70;;
17253;SDS011;32542;52.832;13.816;2023-07-28T17:22:02;0.70;;;0.70;;
17253;SDS011;32542;52.832;13.816;2023-07-28T17:25:05;1.38;;;0.80;;
17253;SDS011;32542;52.832;13.816;2023-07-28T17:28:09;0.70;;;0.70;;
17253;SDS011;32542;52.832;13.816;2023-07-28T17:31:12;1.95;;;0.70;;
17253;SDS011;32542;52.832;13.816;2023-07-28T17:34:16;1.77;;;0.80;;
17253;SDS011;32542;52.832;13.816;2023-07-28T17:37:20;1.05;;;0.82;;
17253;SDS011;32542;52.832;13.816;2023-07-28T17:40:23;0.77;;;0.75;;
17253;SDS011;32542;52.832;13.816;2023-07-28T17:43:26;1.75;;;0.85;;
17253;SDS011;32542;52.832;13.816;2023-07-28T17:46:29;0.88;;;0.88;;
17253;SDS011;32542;52.832;13.816;2023-07-28T17:49:32;3.05;;;0.80;;
17253;SDS011;32542;52.832;13.816;2023-07-28T17:52:36;1.10;;;1.00;;
17253;SDS011;32542;52.832;13.816;2023-07-28T17:55:39;2.55;;;0.70;;
17253;SDS011;32542;52.832;13.816;2023-07-28T17:58:42;0.80;;;0.80;;
17253;SDS011;32542;52.832;13.816;2023-07-28T18:01:45;2.88;;;0.88;;
17253;SDS011;32542;52.832;13.816;2023-07-28T18:04:48;1.00;;;0.90;;
17253;SDS011;32542;52.832;13.816;2023-07-28T18:07:52;0.95;;;0.88;;
17253;SDS011;32542;52.832;13.816;2023-07-28T18:10:55;1.30;;;0.80;;
17253;SDS011;32542;52.832;13.816;2023-07-28T18:13:58;1.25;;;0.60;;
17253;SDS011;32542;52.832;13.816;2023-07-28T18:17:01;0.80;;;0.80;;